Portada
METAR-TAF:

METAR-TAF

Aeroports :

Bintulu, Malàisia

latitud: 03-12N, longitud: 113-02E, altitud: 2 m

Observació

L'informe es va fer fa 28 minuts, a les 17:00 UTC
Vent calma
Temperatura 27°C
Humitat 94%
Pressió 1010 hPa
Visibilitat: 4000 m
Escasses núvols a una alçada de 1600 ft
Cel ennuvolat a una alçada de 15000 ft
calitja

METAR: WBGB 211700Z 00000KT 4000 HZ FEW016 BKN150 27/26 Q1010

Hora: 01:28 (17:28 UTC)

Pronòstic

L'informe es va fer fa 6 hores i 28 minuts, a les 11:00 UTC
Pronòstic vàlid del 21 a les 12 UTC al 22 a les 12 UTC
Vent 5 kt del Sud/Sud-Est
Visibilitat: 6000 m
Escasses núvols a una alçada de 1600 ft
Temporalment
l' 21 a les 20 UTC al 22 a les 00 UTC
Visibilitat: 4000 m
Escasses núvols a una alçada de 300 ft
Núvols disperses a una alçada de 1400 ft
pluja

TAF: WBGB 211100Z 2112/2212 15005KT 6000 FEW016 TEMPO 2120/2200 4000 RA FEW003 SCT014

Observacions i pronòstics meteorològics de més de 4000 aeroports (METAR i TAF).

Les estacions disponibles són els punts grocs i vermells al mapa.

Posi el ratolí al punt desitjat per veure el nom de l'estació.

Feu clic per veure les observacions i els pronòstics meteorològics.

Per canviar el mapa: feu clic els botons verds amb una creu de color negre per apropar; al botó verd amb un guió per allunyar la imatge; o en les fletxes verdes per a mapes adjacents.


METAR-TAF: